Time;durP1;ratioP1;P1;durP2;ratioP2;P2;SDS_P1;SDS_P2;PMS_P1;PMS_P2;Temp;Humidity;BMP_temperature;BMP_pressure;BME280_temperature;BME280_humidity;BME280_pressure;Samples;Min_cycle;Max_cycle;Signal;HPM_P1;HPM_P2
2021/05/17 00:00:58;;;;;;;1.58;1.42;;;;;;;12.18;82.39;98847.72;10283105;28;20070;-73
2021/05/17 00:06:00;;;;;;;2.70;1.60;;;;;;;12.11;82.59;98842.19;10303307;28;20039;-72
2021/05/17 00:11:02;;;;;;;2.78;1.27;;;;;;;12.05;82.22;98844.72;10296835;28;20151;-71
2021/05/17 00:16:03;;;;;;;3.38;1.60;;;;;;;12.00;82.90;98856.72;10267866;28;20127;-71
2021/05/17 00:21:06;;;;;;;2.40;1.38;;;;;;;11.84;83.33;98852.19;10272798;28;20047;-73
2021/05/17 00:26:08;;;;;;;2.33;1.80;;;;;;;11.78;84.43;98862.66;10278896;28;20055;-75
2021/05/17 00:31:10;;;;;;;2.50;1.42;;;;;;;11.67;85.06;98853.16;10292427;28;20046;-71
2021/05/17 00:36:12;;;;;;;2.58;1.20;;;;;;;11.64;84.28;98854.31;10273485;28;20057;-75
2021/05/17 00:41:14;;;;;;;2.72;1.50;;;;;;;11.71;84.50;98857.19;10295744;28;20046;-74
2021/05/17 00:46:15;;;;;;;1.27;1.17;;;;;;;11.66;82.88;98860.34;10291612;28;20129;-71
2021/05/17 00:51:17;;;;;;;1.70;1.60;;;;;;;11.56;83.05;98859.66;10276047;28;20105;-71
2021/05/17 00:56:20;;;;;;;3.58;1.48;;;;;;;11.47;82.56;98860.63;10263774;28;20101;-71
2021/05/17 01:01:21;;;;;;;1.40;1.15;;;;;;;11.45;82.70;98857.28;10263973;28;20050;-71
2021/05/17 01:06:23;;;;;;;3.42;1.38;;;;;;;11.22;82.26;98862.41;10263974;28;20059;-70
2021/05/17 01:11:26;;;;;;;2.83;1.35;;;;;;;11.36;82.11;98860.94;10262184;28;20043;-71
2021/05/17 01:16:28;;;;;;;2.83;1.50;;;;;;;11.25;81.24;98876.22;10249851;28;20117;-71
2021/05/17 01:21:35;;;;;;;1.67;1.20;;;;;;;11.12;80.78;98876.69;10243455;28;20146;-71
2021/05/17 01:26:37;;;;;;;1.73;1.33;;;;;;;11.01;80.96;98876.13;10253973;28;20057;-71
2021/05/17 01:31:38;;;;;;;1.70;1.10;;;;;;;11.06;80.40;98884.47;10245838;28;20684;-74
2021/05/17 01:36:43;;;;;;;1.63;0.95;;;;;;;11.08;80.61;98877.13;10261855;28;20212;-71
2021/05/17 01:41:46;;;;;;;;;;;;;;;11.19;81.13;98874.19;10265159;28;20083;-71
2021/05/17 01:46:48;;;;;;;2.13;1.10;;;;;;;11.28;81.34;98881.22;10248548;28;19925;-71
2021/05/17 01:51:50;;;;;;;1.55;1.45;;;;;;;11.29;81.46;98874.91;10256351;28;20271;-74
2021/05/17 01:56:55;;;;;;;1.70;1.45;;;;;;;11.05;81.97;98880.13;10247738;28;20083;-71
2021/05/17 02:01:57;;;;;;;2.67;0.90;;;;;;;11.19;81.62;98882.19;10260360;28;20062;-72
2021/05/17 02:06:58;;;;;;;2.92;0.88;;;;;;;11.09;81.56;98889.47;10251626;28;20520;-70
2021/05/17 02:12:03;;;;;;;0.70;0.47;;;;;;;11.07;81.02;98886.16;10264390;28;20054;-71
2021/05/17 02:17:04;;;;;;;0.82;0.60;;;;;;;11.10;81.06;98891.97;10249769;28;20101;-71
2021/05/17 02:22:06;;;;;;;1.02;0.55;;;;;;;10.96;80.73;98888.09;10262777;28;20050;-72
2021/05/17 02:27:08;;;;;;;1.05;0.50;;;;;;;10.98;81.17;98890.59;10248457;28;20591;-70
2021/05/17 02:32:17;;;;;;;0.85;0.38;;;;;;;11.09;82.04;98889.47;10247761;28;20070;-70
2021/05/17 02:37:19;;;;;;;0.93;0.60;;;;;;;10.98;81.50;98889.78;10254671;28;20517;-72
2021/05/17 02:42:26;;;;;;;1.35;0.50;;;;;;;10.94;82.77;98891.91;10248088;28;20058;-70
2021/05/17 02:47:32;;;;;;;1.23;0.57;;;;;;;10.86;82.71;98892.69;10260343;28;20062;-72
2021/05/17 02:52:34;;;;;;;0.32;0.30;;;;;;;10.86;83.56;98908.66;10251983;28;20047;-71
2021/05/17 02:57:44;;;;;;;0.52;0.40;;;;;;;10.71;84.06;98904.94;10275359;28;20492;-71
2021/05/17 03:03:11;;;;;;;1.05;0.50;;;;;;;10.69;83.83;98917.53;10273214;28;20509;-70
2021/05/17 03:08:15;;;;;;;0.60;0.50;;;;;;;10.71;85.28;98912.91;10307071;28;20118;-71
2021/05/17 03:13:18;;;;;;;0.80;0.60;;;;;;;10.75;85.30;98906.28;10267087;28;20110;-71
2021/05/17 03:18:20;;;;;;;1.38;0.75;;;;;;;10.77;85.05;98912.28;10267584;28;20071;-70
2021/05/17 03:23:22;;;;;;;1.90;0.70;;;;;;;10.73;84.94;98916.25;10283666;28;20688;-72
2021/05/17 03:28:23;;;;;;;2.75;0.90;;;;;;;10.88;84.75;98919.97;10275395;28;20622;-72
2021/05/17 03:33:24;;;;;;;0.88;0.88;;;;;;;10.74;85.05;98920.59;10280736;28;20170;-71
2021/05/17 03:38:26;;;;;;;1.45;1.00;;;;;;;10.69;86.39;98926.38;10252145;28;20088;-71
2021/05/17 03:43:27;;;;;;;2.60;2.40;;;;;;;10.59;85.76;98915.00;10255770;28;20130;-71
2021/05/17 03:48:29;;;;;;;2.78;2.05;;;;;;;10.67;86.38;98924.84;10239601;28;20079;-75
2021/05/17 03:53:30;;;;;;;2.88;2.20;;;;;;;10.75;86.18;98931.06;10242903;28;20419;-71
2021/05/17 03:58:32;;;;;;;3.10;2.30;;;;;;;10.89;85.53;98929.66;10204022;29;20079;-73
2021/05/17 04:03:33;;;;;;;1.48;1.38;;;;;;;10.99;86.57;98937.53;10222193;28;20048;-71
2021/05/17 04:13:55;;;;;;;2.50;1.63;;;;;;;11.05;84.68;98938.72;10225147;28;20075;-72
2021/05/17 04:18:56;;;;;;;2.17;1.95;;;;;;;11.17;86.31;98937.47;10229311;28;20106;-70
2021/05/17 04:23:58;;;;;;;2.50;1.90;;;;;;;11.38;84.80;98946.84;10213834;28;20052;-70
2021/05/17 04:28:59;;;;;;;2.42;1.80;;;;;;;11.29;85.04;98954.81;10209293;28;20581;-72
2021/05/17 04:34:00;;;;;;;1.95;1.63;;;;;;;11.31;84.90;98936.84;10238653;28;20086;-72
2021/05/17 04:39:04;;;;;;;1.55;1.40;;;;;;;11.24;85.80;98946.47;10267423;28;20129;-71
2021/05/17 04:44:05;;;;;;;1.67;1.35;;;;;;;11.27;86.30;98962.16;10264987;28;20042;-72
2021/05/17 04:49:07;;;;;;;4.35;1.95;;;;;;;11.22;87.08;98964.44;10266158;28;20043;-74
2021/05/17 04:54:08;;;;;;;3.65;1.63;;;;;;;11.22;86.07;98966.28;10258830;28;20053;-73
2021/05/17 04:59:10;;;;;;;2.40;1.60;;;;;;;11.15;87.05;98968.72;10264844;28;20050;-73
2021/05/17 05:04:11;;;;;;;2.55;1.35;;;;;;;11.16;87.36;98975.72;10261221;28;20074;-71
2021/05/17 05:09:12;;;;;;;5.38;1.98;;;;;;;11.39;87.05;98972.50;10249274;28;20241;-72
2021/05/17 05:14:14;;;;;;;1.55;0.98;;;;;;;11.35;86.11;98981.81;10262166;28;20058;-72
2021/05/17 05:19:15;;;;;;;3.53;1.10;;;;;;;11.39;85.88;98991.97;10262276;28;20053;-72
2021/05/17 05:24:17;;;;;;;1.88;1.17;;;;;;;11.41;85.95;98995.34;10244284;28;20051;-71
2021/05/17 05:29:26;;;;;;;4.03;1.30;;;;;;;11.72;85.45;98993.94;10264031;28;20102;-71
2021/05/17 05:34:29;;;;;;;1.50;1.40;;;;;;;11.55;85.27;98999.22;10244304;28;20051;-70
2021/05/17 05:39:31;;;;;;;1.63;1.13;;;;;;;11.58;85.06;98993.56;10245943;28;20113;-69
2021/05/17 05:44:39;;;;;;;1.63;1.10;;;;;;;11.63;84.56;98993.94;10263361;28;20199;-70
2021/05/17 05:49:45;;;;;;;1.85;1.40;;;;;;;11.63;83.97;99004.59;10259239;28;20307;-70
2021/05/17 05:54:49;;;;;;;2.17;1.10;;;;;;;11.78;83.85;99011.97;10261374;28;20050;-71
2021/05/17 05:59:51;;;;;;;2.97;1.10;;;;;;;11.86;82.94;99020.00;10265603;28;20872;-72
2021/05/17 06:04:52;;;;;;;4.43;1.25;;;;;;;11.95;82.20;99024.38;10248759;28;20113;-73
2021/05/17 06:09:54;;;;;;;1.95;1.15;;;;;;;12.08;81.87;99029.25;10256356;28;20078;-71
2021/05/17 06:15:00;;;;;;;2.60;1.02;;;;;;;12.18;81.44;99031.78;10256915;28;20493;-67
2021/05/17 06:20:04;;;;;;;2.15;1.20;;;;;;;12.11;82.08;99044.09;10244636;28;20055;-71
2021/05/17 06:25:11;;;;;;;3.90;1.15;;;;;;;12.24;81.99;99049.78;10260908;28;20081;-71
2021/05/17 06:30:13;;;;;;;2.00;1.33;;;;;;;12.11;81.30;99044.91;10281185;28;20597;-69
2021/05/17 06:35:19;;;;;;;2.97;1.10;;;;;;;12.08;81.84;99052.41;10286181;28;20085;-69
2021/05/17 06:40:21;;;;;;;4.38;1.42;;;;;;;12.03;82.88;99058.25;10265837;28;20054;-68
2021/05/17 06:45:23;;;;;;;1.77;1.33;;;;;;;12.01;84.39;99055.75;10264895;28;20062;-70
2021/05/17 06:50:25;;;;;;;2.63;1.40;;;;;;;12.07;83.29;99059.59;10265627;28;20050;-71
2021/05/17 06:55:33;;;;;;;2.85;1.30;;;;;;;12.10;82.79;99058.41;10288310;28;20604;-73
2021/05/17 07:00:35;;;;;;;2.63;2.35;;;;;;;12.33;83.40;99064.81;10264076;28;20050;-69
2021/05/17 07:05:39;;;;;;;1.65;1.25;;;;;;;12.28;82.39;99061.81;10263057;28;20425;-70
2021/05/17 07:16:01;;;;;;;2.45;1.10;;;;;;;12.61;80.00;99061.88;10276824;28;20047;-70
2021/05/17 07:26:07;;;;;;;2.00;1.65;;;;;;;13.03;77.64;99076.88;10263269;28;20050;-71
2021/05/17 07:31:09;;;;;;;2.65;1.48;;;;;;;13.18;77.13;99073.50;10261761;28;20062;-70
2021/05/17 07:36:12;;;;;;;1.98;1.33;;;;;;;13.36;76.27;99078.69;10260753;28;20059;-71
2021/05/17 07:41:15;;;;;;;3.03;1.42;;;;;;;13.21;75.12;99081.19;10259888;28;20117;-70
2021/05/17 07:46:18;;;;;;;1.40;1.15;;;;;;;12.92;76.40;99077.22;10261305;28;20129;-69
2021/05/17 07:51:19;;;;;;;2.38;1.30;;;;;;;13.15;75.15;99073.84;10247956;28;20101;-69
2021/05/17 07:56:22;;;;;;;2.45;1.20;;;;;;;13.60;74.73;99078.63;10245504;28;20541;-70
2021/05/17 08:01:23;;;;;;;2.38;1.23;;;;;;;14.22;72.17;99077.03;10257463;28;20953;-69
2021/05/17 08:06:25;;;;;;;4.05;1.40;;;;;;;13.85;72.54;99083.06;10257267;28;20121;-69
2021/05/17 08:11:26;;;;;;;1.65;0.90;;;;;;;13.44;72.16;99079.50;10260408;28;20129;-67
2021/05/17 08:16:30;;;;;;;5.88;1.50;;;;;;;13.19;75.30;99085.88;10257771;28;20051;-71
2021/05/17 08:21:31;;;;;;;3.80;1.50;;;;;;;13.01;78.96;99076.19;10256665;28;20051;-72
2021/05/17 08:26:33;;;;;;;1.95;1.27;;;;;;;13.23;78.05;99079.19;10254706;28;20466;-71
2021/05/17 08:31:34;;;;;;;2.33;1.08;;;;;;;13.36;77.35;99087.56;10255930;28;20422;-71
2021/05/17 08:36:36;;;;;;;3.78;1.40;;;;;;;13.39;76.20;99089.88;10271584;28;20078;-69
2021/05/17 08:41:38;;;;;;;4.03;1.50;;;;;;;13.61;75.20;99100.84;10251455;28;20070;-71
2021/05/17 08:46:46;;;;;;;3.67;1.65;;;;;;;13.40;72.36;99096.06;10256320;28;20046;-70
2021/05/17 08:51:49;;;;;;;4.47;1.38;;;;;;;12.96;73.92;99102.59;10255972;28;20074;-70
2021/05/17 08:56:50;;;;;;;2.08;1.13;;;;;;;13.18;73.81;99102.91;10264578;28;20070;-68
2021/05/17 09:01:51;;;;;;;2.17;1.58;;;;;;;13.46;73.38;99099.91;10261171;28;20058;-69
2021/05/17 09:06:55;;;;;;;2.80;1.65;;;;;;;13.84;72.98;99102.78;10268821;28;20424;-74
2021/05/17 09:12:02;;;;;;;3.00;1.25;;;;;;;14.25;71.90;99102.63;10267360;28;20361;-70
2021/05/17 09:17:10;;;;;;;4.72;2.13;;;;;;;14.67;68.68;99090.69;10267628;28;20073;-69
2021/05/17 09:22:19;;;;;;;4.20;1.02;;;;;;;15.46;66.22;99084.97;10286334;28;20058;-68
2021/05/17 09:27:30;;;;;;;4.30;1.30;;;;;;;15.68;64.50;99085.06;10247633;28;20073;-71
2021/05/17 09:32:35;;;;;;;2.72;0.70;;;;;;;15.54;64.75;99084.88;10263899;28;20125;-67
2021/05/17 09:37:59;;;;;;;2.35;0.77;;;;;;;15.01;64.30;99084.03;10244980;28;20047;-74
2021/05/17 09:43:06;;;;;;;2.88;1.02;;;;;;;14.56;65.28;99091.03;10254734;28;20468;-70
2021/05/17 09:48:25;;;;;;;2.28;0.85;;;;;;;14.04;66.66;99101.38;10238980;28;20072;-69
2021/05/17 09:53:30;;;;;;;6.93;0.98;;;;;;;13.84;69.79;99118.84;10244642;28;20572;-70
2021/05/17 09:58:35;;;;;;;1.52;0.60;;;;;;;13.77;71.53;99113.34;10256522;28;20130;-70
2021/05/17 10:03:39;;;;;;;1.20;0.57;;;;;;;14.45;70.45;99106.50;10250607;28;20390;-71
2021/05/17 10:08:40;;;;;;;1.48;0.98;;;;;;;15.80;67.63;99094.34;10255062;28;20142;-69
2021/05/17 10:13:42;;;;;;;0.98;0.50;;;;;;;16.18;62.23;99088.84;10263662;28;20086;-71
2021/05/17 10:18:46;;;;;;;2.17;0.70;;;;;;;15.08;63.47;99089.53;10248343;28;20550;-69
2021/05/17 10:23:47;;;;;;;1.65;0.90;;;;;;;14.94;66.25;99091.16;10262562;28;20113;-69
2021/05/17 10:28:53;;;;;;;3.53;1.27;;;;;;;15.54;63.36;99097.44;10265883;28;20139;-68
2021/05/17 10:34:04;;;;;;;2.40;0.90;;;;;;;15.59;61.35;99096.91;10263086;28;20110;-71
2021/05/17 10:39:12;;;;;;;2.42;0.63;;;;;;;15.86;61.44;99111.53;10277396;28;20082;-68
2021/05/17 10:46:36;;;;;;;2.30;0.80;;;;;;;15.64;60.83;99089.13;10281286;28;20568;-71
2021/05/17 10:49:38;;;;;;;1.40;0.63;;;;;;;16.19;58.73;99089.66;10271736;28;20042;-68
2021/05/17 10:54:42;;;;;;;1.08;0.68;;;;;;;16.67;58.44;99070.34;10261216;28;20116;-68
2021/05/17 11:05:18;;;;;;;2.08;0.63;;;;;;;17.43;54.10;99075.09;10276049;28;20051;-70
2021/05/17 11:10:21;;;;;;;0.53;0.40;;;;;;;17.57;53.52;99073.34;10283318;28;20051;-68
2021/05/17 11:15:38;;;;;;;2.37;0.53;;;;;;;17.56;51.81;99064.44;10282876;28;20046;-68
2021/05/17 11:26:03;;;;;;;1.75;0.60;;;;;;;17.64;51.06;99083.13;10276758;28;20046;-69
2021/05/17 11:31:19;;;;;;;1.60;0.77;;;;;;;17.97;49.56;99077.13;10283179;28;20047;-69
2021/05/17 11:36:27;;;;;;;1.67;0.30;;;;;;;17.85;47.91;99090.28;10266590;28;20054;-69
2021/05/17 11:41:31;;;;;;;2.30;0.77;;;;;;;16.72;50.65;99084.03;10255353;28;20066;-70
2021/05/17 11:46:36;;;;;;;1.98;0.50;;;;;;;16.01;54.27;99082.00;10260531;28;20513;-73
2021/05/17 11:51:38;;;;;;;2.15;0.70;;;;;;;15.61;58.43;99103.72;10249569;28;20066;-69
2021/05/17 11:56:42;;;;;;;2.00;0.55;;;;;;;15.11;63.79;99116.78;10244931;28;20070;-73
2021/05/17 12:01:48;;;;;;;1.90;0.50;;;;;;;14.55;66.80;99121.53;10267478;28;20437;-71
2021/05/17 12:06:55;;;;;;;1.33;0.30;;;;;;;14.46;68.30;99134.94;10273894;28;20101;-71
2021/05/17 12:12:03;;;;;;;0.68;0.40;;;;;;;14.28;69.12;99129.88;10292973;28;20035;-74
2021/05/17 12:17:07;;;;;;;2.28;0.80;;;;;;;14.42;71.96;99124.78;10268326;28;20054;-72
2021/05/17 12:22:25;;;;;;;1.95;0.63;;;;;;;15.22;70.13;99117.38;10256151;28;20042;-71
2021/05/17 12:27:27;;;;;;;1.48;0.57;;;;;;;16.38;65.92;99117.78;10258698;28;20484;-69
2021/05/17 12:32:32;;;;;;;2.42;0.57;;;;;;;16.70;64.90;99112.94;10259817;28;20446;-72
2021/05/17 12:37:38;;;;;;;1.60;0.40;;;;;;;17.14;62.86;99103.88;10256668;28;20051;-69
2021/05/17 12:42:41;;;;;;;2.28;0.63;;;;;;;17.69;61.89;99095.97;10254802;28;20160;-69
2021/05/17 12:47:45;;;;;;;1.77;0.27;;;;;;;17.60;56.06;99094.47;10283345;28;20046;-69
2021/05/17 12:52:47;;;;;;;1.80;0.35;;;;;;;17.44;56.87;99098.31;10271470;28;20046;-70
2021/05/17 12:57:53;;;;;;;1.67;0.38;;;;;;;16.43;59.13;99107.28;10267716;28;20077;-69
2021/05/17 13:03:05;;;;;;;2.53;0.55;;;;;;;15.28;68.30;99116.63;10265947;28;20073;-68
2021/05/17 13:08:07;;;;;;;0.50;0.20;;;;;;;15.44;65.06;99119.16;10253124;28;21134;-70
2021/05/17 13:13:08;;;;;;;1.15;0.20;;;;;;;15.96;64.36;99093.31;10268747;28;20069;-67
2021/05/17 13:18:11;;;;;;;0.80;0.40;;;;;;;16.25;63.21;99076.31;10273867;28;20046;-70
2021/05/17 13:33:58;;;;;;;1.38;0.73;;;;;;;17.30;58.72;99074.00;10262498;28;20042;-70
2021/05/17 13:39:00;;;;;;;1.10;0.30;;;;;;;17.09;56.11;99074.06;10251663;28;20138;-67
2021/05/17 13:44:02;;;;;;;0.55;0.25;;;;;;;16.79;56.86;99082.25;10251942;28;20526;-71
2021/05/17 13:49:03;;;;;;;0.77;0.35;;;;;;;16.16;57.05;99090.88;10254023;28;20110;-70
2021/05/17 13:54:05;;;;;;;2.80;0.40;;;;;;;15.67;61.90;99172.75;10258208;28;20530;-69
2021/05/17 13:59:06;;;;;;;2.65;0.40;;;;;;;14.30;69.28;99170.66;10256038;28;20090;-68
2021/05/17 14:04:08;;;;;;;1.73;0.43;;;;;;;13.94;65.82;99144.38;10254887;28;20076;-69
2021/05/17 14:09:13;;;;;;;1.15;0.40;;;;;;;13.93;73.59;99153.44;10256021;28;20051;-68
2021/05/17 14:14:15;;;;;;;2.00;0.43;;;;;;;14.22;70.03;99153.81;10257967;28;20517;-71
2021/05/17 14:19:16;;;;;;;1.08;0.30;;;;;;;14.70;73.11;99159.97;10242036;28;20117;-73
2021/05/17 14:24:18;;;;;;;2.78;1.25;;;;;;;15.12;68.72;99163.19;10252120;28;20063;-71
2021/05/17 14:29:19;;;;;;;0.77;0.47;;;;;;;15.31;66.73;99148.44;10252339;28;20051;-69
2021/05/17 14:34:22;;;;;;;1.70;0.85;;;;;;;15.71;68.88;99157.94;10246089;28;20074;-70
2021/05/17 14:39:23;;;;;;;2.30;0.90;;;;;;;15.83;67.49;99150.31;10266221;28;20050;-71
2021/05/17 14:44:26;;;;;;;1.40;0.65;;;;;;;16.11;63.05;99155.03;10267063;28;20137;-71
2021/05/17 14:49:27;;;;;;;1.45;0.60;;;;;;;16.48;62.95;99149.69;10266208;28;20125;-71
2021/05/17 14:54:34;;;;;;;1.42;0.57;;;;;;;16.06;62.58;99155.59;10267993;28;20299;-71
2021/05/17 14:59:35;;;;;;;0.68;0.30;;;;;;;15.73;63.68;99155.94;10274262;28;20583;-68
2021/05/17 15:04:40;;;;;;;1.33;0.73;;;;;;;15.55;66.74;99169.69;10268604;28;20045;-69
2021/05/17 15:09:42;;;;;;;1.90;0.40;;;;;;;15.51;67.88;99172.91;10284985;28;20049;-68
2021/05/17 15:14:43;;;;;;;2.42;0.60;;;;;;;15.64;69.15;99178.50;10271096;28;20138;-69
2021/05/17 15:19:44;;;;;;;2.13;0.70;;;;;;;15.91;68.21;99189.63;10251485;28;20141;-68
2021/05/17 15:24:46;;;;;;;3.13;0.50;;;;;;;15.93;66.47;99192.13;10276419;28;20039;-72
2021/05/17 15:29:48;;;;;;;1.98;0.82;;;;;;;15.81;70.34;99195.28;10231379;28;20508;-68
2021/05/17 15:34:49;;;;;;;2.63;0.85;;;;;;;15.67;68.92;99194.22;10269625;28;20051;-69
2021/05/17 15:39:51;;;;;;;1.33;1.08;;;;;;;15.77;69.28;99203.84;10266337;28;20133;-69
2021/05/17 15:44:52;;;;;;;1.85;0.93;;;;;;;15.47;67.98;99209.97;10266288;28;20070;-69
2021/05/17 15:49:53;;;;;;;1.70;1.02;;;;;;;15.32;68.99;99206.41;10266480;28;20079;-69
2021/05/17 15:54:55;;;;;;;3.22;1.08;;;;;;;15.20;68.06;99196.09;10244048;28;20078;-69
2021/05/17 15:59:56;;;;;;;1.92;0.80;;;;;;;14.89;69.48;99189.97;10251785;28;20105;-70
2021/05/17 16:04:58;;;;;;;3.40;1.00;;;;;;;14.85;72.02;99190.31;10261531;28;20683;-68
2021/05/17 16:10:00;;;;;;;1.85;0.90;;;;;;;14.87;71.42;99175.94;10261178;23;20050;-73
2021/05/17 16:15:29;;;;;;;1.52;1.00;;;;;;;15.09;71.33;99196.53;10293774;28;20053;-71
2021/05/17 16:25:45;;;;;;;1.35;0.70;;;;;;;15.28;69.08;99200.59;10261797;28;20042;-71
2021/05/17 16:30:47;;;;;;;1.27;0.77;;;;;;;15.07;68.07;99190.50;10260361;28;20054;-72
2021/05/17 16:35:48;;;;;;;1.45;0.40;;;;;;;14.94;67.00;99214.41;10260960;28;20132;-72
2021/05/17 16:41:12;;;;;;;1.20;0.43;;;;;;;14.78;66.11;99224.19;10246734;28;20050;-72
2021/05/17 16:46:14;;;;;;;1.15;0.40;;;;;;;14.70;66.42;99224.25;10245505;28;20811;-71
2021/05/17 16:51:16;;;;;;;0.80;0.32;;;;;;;14.85;66.51;99241.22;10259938;28;20056;-72
2021/05/17 16:56:18;;;;;;;0.57;0.32;;;;;;;14.57;66.43;99218.59;10265057;28;20059;-72
2021/05/17 17:01:19;;;;;;;2.15;0.32;;;;;;;14.93;66.14;99240.34;10279466;28;20051;-73
2021/05/17 17:06:21;;;;;;;1.85;0.50;;;;;;;14.78;64.06;99232.22;10275310;28;20070;-72
2021/05/17 17:11:23;;;;;;;0.50;0.40;;;;;;;14.55;64.18;99234.00;10283520;28;20810;-72
2021/05/17 17:16:25;;;;;;;1.00;0.40;;;;;;;14.53;65.32;99241.34;10270334;28;20109;-72
2021/05/17 17:21:26;;;;;;;1.05;0.40;;;;;;;14.45;65.63;99244.91;10261952;28;20066;-72
2021/05/17 17:26:28;;;;;;;1.23;0.65;;;;;;;14.42;66.49;99248.75;10260076;28;20449;-71
2021/05/17 17:31:30;;;;;;;1.58;0.68;;;;;;;14.57;66.43;99277.50;10254950;28;20110;-72
2021/05/17 17:36:32;;;;;;;2.47;0.60;;;;;;;14.48;66.45;99290.91;10257749;28;20105;-73
2021/05/17 17:41:34;;;;;;;1.73;0.77;;;;;;;14.28;67.19;99257.53;10258904;28;20059;-72
2021/05/17 17:46:37;;;;;;;1.83;0.30;;;;;;;14.37;67.98;99293.13;10260435;28;20055;-73
2021/05/17 17:51:41;;;;;;;2.75;0.60;;;;;;;14.30;68.43;99276.91;10258420;28;20537;-72
2021/05/17 17:56:43;;;;;;;2.63;0.53;;;;;;;14.22;68.58;99271.59;10256914;28;20070;-72
2021/05/17 18:01:44;;;;;;;0.98;0.80;;;;;;;14.30;69.01;99292.97;10257515;28;20054;-73
2021/05/17 18:06:46;;;;;;;2.35;0.73;;;;;;;14.26;68.64;99299.66;10259321;28;20129;-72
2021/05/17 18:11:50;;;;;;;2.00;0.73;;;;;;;14.21;69.87;99289.47;10255806;28;20168;-71
2021/05/17 18:16:52;;;;;;;3.65;0.60;;;;;;;14.35;70.11;99316.53;10265202;28;20062;-71
2021/05/17 18:21:53;;;;;;;1.30;1.00;;;;;;;14.29;70.57;99310.03;10259145;28;20130;-72
2021/05/17 18:26:55;;;;;;;1.05;0.95;;;;;;;14.35;72.19;99309.34;10262626;28;20086;-72
2021/05/17 18:37:05;;;;;;;5.28;2.15;;;;;;;14.37;71.99;99344.00;10265271;28;20047;-72
2021/05/17 18:42:08;;;;;;;2.33;1.73;;;;;;;14.43;70.97;99344.13;10261603;28;20193;-72
2021/05/17 18:47:09;;;;;;;1.35;1.00;;;;;;;14.67;70.42;99374.59;10265471;28;20118;-73
2021/05/17 18:52:11;;;;;;;2.42;0.85;;;;;;;14.34;69.69;99379.97;10265549;28;20054;-75
2021/05/17 18:57:12;;;;;;;1.75;0.55;;;;;;;14.01;69.65;99374.63;10262880;28;20109;-72
2021/05/17 19:02:15;;;;;;;1.48;0.70;;;;;;;13.90;70.66;99377.63;10263710;28;20051;-73
2021/05/17 19:07:16;;;;;;;0.98;0.77;;;;;;;13.93;70.74;99393.34;10261775;28;20043;-72
2021/05/17 19:12:18;;;;;;;1.88;0.88;;;;;;;13.75;71.59;99407.72;10249591;28;20124;-72
2021/05/17 19:17:20;;;;;;;2.17;1.05;;;;;;;13.77;72.02;99416.41;10247750;28;20046;-73
2021/05/17 19:22:22;;;;;;;2.38;1.00;;;;;;;13.71;71.82;99427.75;10262800;28;20146;-73
2021/05/17 19:27:24;;;;;;;1.20;0.70;;;;;;;13.74;73.06;99440.81;10246351;28;20584;-72
2021/05/17 19:32:27;;;;;;;0.90;0.80;;;;;;;13.63;71.27;99435.78;10263903;28;20055;-72
2021/05/17 19:37:30;;;;;;;1.60;0.80;;;;;;;13.51;71.36;99431.72;10252161;28;20054;-73
2021/05/17 19:42:32;;;;;;;1.30;1.00;;;;;;;13.50;71.66;99440.75;10247991;28;20495;-74
2021/05/17 19:47:34;;;;;;;2.08;1.20;;;;;;;13.55;71.40;99457.97;10262894;28;20082;-70
2021/05/17 19:52:35;;;;;;;2.63;1.30;;;;;;;13.49;71.69;99444.41;10260040;28;20059;-69
2021/05/17 19:57:37;;;;;;;1.95;1.23;;;;;;;13.57;72.45;99465.81;10259636;28;20071;-68
2021/05/17 20:02:40;;;;;;;2.80;1.33;;;;;;;13.67;71.09;99468.38;10258433;28;20073;-69
2021/05/17 20:07:42;;;;;;;1.55;1.00;;;;;;;13.47;69.06;99462.47;10260036;28;20518;-70
2021/05/17 20:12:44;;;;;;;3.00;1.63;;;;;;;13.39;70.98;99469.44;10245321;28;20125;-69
2021/05/17 20:17:46;;;;;;;2.88;1.27;;;;;;;13.23;69.03;99464.81;10260320;28;20102;-69
2021/05/17 20:22:51;;;;;;;1.50;1.40;;;;;;;13.34;69.49;99485.13;10248029;28;20129;-69
2021/05/17 20:27:54;;;;;;;1.42;1.08;;;;;;;13.18;68.92;99477.00;10259715;28;20047;-69
2021/05/17 20:32:58;;;;;;;2.90;2.08;;;;;;;13.13;69.44;99484.66;10256551;28;20054;-70
2021/05/17 20:38:01;;;;;;;1.83;1.55;;;;;;;13.22;69.15;99492.53;10277084;28;20105;-70
2021/05/17 20:43:06;;;;;;;2.85;1.30;;;;;;;13.22;69.35;99502.41;10280936;28;20054;-70
2021/05/17 20:48:08;;;;;;;1.77;1.40;;;;;;;13.19;70.66;99492.03;10280293;28;22806;-69
2021/05/17 20:53:10;;;;;;;2.03;1.17;;;;;;;13.07;72.08;99496.81;10277595;28;20051;-70
2021/05/17 20:58:12;;;;;;;3.65;1.70;;;;;;;13.09;73.66;99511.69;10281854;28;20047;-69
2021/05/17 21:03:13;;;;;;;3.25;1.70;;;;;;;12.94;74.29;99493.72;10288764;28;20047;-69
2021/05/17 21:08:15;;;;;;;2.20;1.30;;;;;;;13.11;74.55;99516.06;10276746;28;20066;-69
2021/05/17 21:13:16;;;;;;;2.42;1.45;;;;;;;13.19;75.14;99526.78;10293779;28;20077;-69
2021/05/17 21:18:21;;;;;;;2.70;1.38;;;;;;;13.16;74.59;99540.44;10289849;28;20093;-69
2021/05/17 21:23:22;;;;;;;1.30;1.20;;;;;;;13.16;74.83;99540.44;10260147;28;20050;-69
2021/05/17 21:28:24;;;;;;;2.83;1.70;;;;;;;13.08;75.00;99534.06;10256623;28;20058;-69
2021/05/17 21:33:25;;;;;;;3.78;2.05;;;;;;;13.04;74.90;99532.69;10281128;28;20167;-69
2021/05/17 21:38:31;;;;;;;2.75;1.70;;;;;;;13.00;73.99;99536.69;10284063;28;20057;-68
2021/05/17 21:43:33;;;;;;;2.03;1.85;;;;;;;12.98;73.34;99544.00;10257420;28;20077;-69
2021/05/17 21:48:34;;;;;;;3.33;1.80;;;;;;;12.75;74.29;99541.00;10261014;28;20051;-68
2021/05/17 21:53:36;;;;;;;2.35;1.88;;;;;;;12.76;73.29;99566.72;10276271;28;20051;-69
2021/05/17 21:58:37;;;;;;;2.22;2.03;;;;;;;12.59;73.92;99571.06;10274666;28;20457;-69
2021/05/17 22:03:38;;;;;;;2.92;2.00;;;;;;;12.64;74.60;99583.94;10294702;28;20222;-68
2021/05/17 22:14:03;;;;;;;2.88;1.67;;;;;;;12.40;73.84;99593.44;10289415;28;21568;-69
2021/05/17 22:19:05;;;;;;;3.25;1.90;;;;;;;12.42;74.42;99611.97;10292482;28;20109;-69
2021/05/17 22:24:10;;;;;;;3.78;2.10;;;;;;;12.35;74.65;99617.06;10276103;28;20070;-69
2021/05/17 22:29:11;;;;;;;3.00;1.90;;;;;;;12.34;74.76;99605.53;10268737;28;20112;-70
2021/05/17 22:34:14;;;;;;;4.20;2.50;;;;;;;12.43;75.42;99621.63;10266971;28;20089;-70
2021/05/17 22:39:16;;;;;;;4.50;1.95;;;;;;;12.33;74.83;99609.19;10292816;28;20050;-72
2021/05/17 22:44:17;;;;;;;1.75;1.35;;;;;;;12.33;75.16;99621.72;10296795;28;20081;-70
2021/05/17 22:49:19;;;;;;;3.03;1.90;;;;;;;12.45;74.29;99622.34;10304221;28;20529;-72
2021/05/17 22:54:21;;;;;;;3.60;2.22;;;;;;;12.45;74.78;99633.84;10298928;28;20126;-69
2021/05/17 22:59:22;;;;;;;1.98;1.65;;;;;;;12.45;74.10;99633.00;10293508;28;20533;-70
2021/05/17 23:04:24;;;;;;;3.17;1.60;;;;;;;12.42;74.36;99622.63;10274113;28;20082;-69
2021/05/17 23:09:26;;;;;;;3.65;1.90;;;;;;;12.28;74.34;99646.19;10269188;28;20142;-70
2021/05/17 23:14:27;;;;;;;2.30;1.80;;;;;;;12.25;75.20;99638.47;10271490;28;20105;-70
2021/05/17 23:19:29;;;;;;;2.40;1.60;;;;;;;12.27;75.73;99639.16;10283989;28;20587;-70
2021/05/17 23:29:51;;;;;;;3.42;1.38;;;;;;;12.26;75.20;99640.13;10278226;28;20073;-70
2021/05/17 23:34:52;;;;;;;1.77;1.60;;;;;;;12.30;75.66;99657.53;10282866;28;20109;-69
2021/05/17 23:39:54;;;;;;;1.38;1.27;;;;;;;12.10;75.15;99639.94;10268596;28;20098;-70
2021/05/17 23:44:55;;;;;;;3.15;1.27;;;;;;;12.12;75.97;99646.00;10256138;28;20051;-70
2021/05/17 23:49:56;;;;;;;1.60;1.50;;;;;;;12.12;76.48;99664.66;10285365;28;20074;-70
2021/05/17 23:54:58;;;;;;;1.88;1.38;;;;;;;12.03;76.35;99651.22;10263010;28;20050;-69
